Time;durP1;ratioP1;P1;durP2;ratioP2;P2;SDS_P1;SDS_P2;PMS_P1;PMS_P2;Temp;Humidity;BMP_temperature;BMP_pressure;BME280_temperature;BME280_humidity;BME280_pressure;Samples;Min_cycle;Max_cycle;Signal;HPM_P1;HPM_P2
2022/08/10 00:01:20;;;;;;;3.60;3.30;;;15.00;99.90;;;;;;5074533;28;20056;-82
2022/08/10 00:03:49;;;;;;;4.68;3.50;;;15.00;99.90;;;;;;5074161;28;20412;-83
2022/08/10 00:06:14;;;;;;;5.57;3.40;;;15.00;99.90;;;;;;5056094;28;20050;-84
2022/08/10 00:08:40;;;;;;;4.82;4.00;;;15.10;99.90;;;;;;5074181;28;20048;-84
2022/08/10 00:11:06;;;;;;;4.47;3.78;;;14.90;99.90;;;;;;5073931;28;20105;-85
2022/08/10 00:13:32;;;;;;;4.75;3.60;;;15.00;99.90;;;;;;5073623;28;20083;-80
2022/08/10 00:15:58;;;;;;;9.40;3.75;;;14.90;99.90;;;;;;5073954;28;20091;-83
2022/08/10 00:18:25;;;;;;;6.55;3.70;;;14.90;99.90;;;;;;5074001;28;20417;-83
2022/08/10 00:20:51;;;;;;;5.60;4.28;;;14.80;99.90;;;;;;5056179;28;20400;-83
2022/08/10 00:23:16;;;;;;;4.55;3.85;;;14.80;99.90;;;;;;5073746;28;20106;-83
2022/08/10 00:25:42;;;;;;;6.43;4.45;;;14.80;99.90;;;;;;5056396;28;20087;-83
2022/08/10 00:28:08;;;;;;;5.65;4.10;;;14.80;99.90;;;;;;5073434;28;20052;-83
2022/08/10 00:30:34;;;;;;;6.63;3.40;;;14.70;99.90;;;;;;5055935;28;20121;-83
2022/08/10 00:32:59;;;;;;;5.43;4.30;;;14.70;99.90;;;;;;5055845;28;20189;-83
2022/08/10 00:35:25;;;;;;;7.35;4.00;;;14.70;99.90;;;;;;5073534;28;20057;-83
2022/08/10 00:37:51;;;;;;;5.88;4.38;;;14.70;99.90;;;;;;5055712;28;20098;-83
2022/08/10 00:40:16;;;;;;;4.13;3.40;;;14.70;99.90;;;;;;5055972;28;20109;-83
2022/08/10 00:42:43;;;;;;;3.75;3.30;;;14.70;99.90;;;;;;5054961;28;20049;-83
2022/08/10 00:45:09;;;;;;;3.22;2.92;;;14.70;99.90;;;;;;5073561;28;20066;-83
2022/08/10 00:47:35;;;;;;;6.20;4.40;;;14.70;99.90;;;;;;5073476;28;20060;-82
2022/08/10 00:50:00;;;;;;;5.88;4.82;;;14.60;99.90;;;;;;5073281;28;20179;-83
2022/08/10 00:52:27;;;;;;;5.47;4.53;;;14.70;99.90;;;;;;5073025;28;20114;-83
2022/08/10 00:54:54;;;;;;;5.05;4.15;;;14.60;99.90;;;;;;5073197;28;20071;-83
2022/08/10 00:57:20;;;;;;;5.72;4.70;;;14.50;99.90;;;;;;5055270;28;20056;-83
2022/08/10 00:59:47;;;;;;;6.28;4.80;;;14.50;99.90;;;;;;5072856;28;20056;-85
2022/08/10 01:02:12;;;;;;;5.43;4.78;;;14.40;99.90;;;;;;5073198;28;20139;-83
2022/08/10 01:04:38;;;;;;;5.72;4.53;;;14.40;99.90;;;;;;5055310;28;20572;-82
2022/08/10 01:07:25;;;;;;;7.22;5.38;;;14.40;99.90;;;;;;5072695;28;20421;-83
2022/08/10 01:10:20;;;;;;;7.32;5.35;;;14.40;99.90;;;;;;5072769;28;20139;-83
2022/08/10 01:12:59;;;;;;;7.70;5.38;;;14.40;99.90;;;;;;5055204;28;20049;-84
2022/08/10 01:15:35;;;;;;;7.40;6.10;;;14.30;99.90;;;;;;5072795;28;20053;-83
2022/08/10 01:18:08;;;;;;;6.65;6.05;;;14.30;99.90;;;;;;5073313;28;20056;-83
2022/08/10 01:20:39;;;;;;;7.57;5.70;;;14.30;99.90;;;;;;5072472;28;20053;-83
2022/08/10 01:23:26;;;;;;;6.25;5.60;;;14.20;99.90;;;;;;5072546;28;20488;-83
2022/08/10 01:26:10;;;;;;;8.82;6.68;;;14.20;99.90;;;;;;5054975;28;20067;-83
2022/08/10 01:29:14;;;;;;;9.23;5.18;;;14.20;99.90;;;;;;5072599;28;20057;-82
2022/08/10 01:31:44;;;;;;;6.15;5.55;;;14.20;99.90;;;;;;5072601;28;20449;-83
2022/08/10 01:34:16;;;;;;;8.65;6.38;;;14.10;99.90;;;;;;5054885;28;20076;-83
2022/08/10 01:36:48;;;;;;;8.73;7.10;;;14.20;99.90;;;;;;5072660;28;20056;-83
2022/08/10 01:39:21;;;;;;;6.65;5.53;;;14.10;99.90;;;;;;5054156;28;20052;-83
2022/08/10 01:41:53;;;;;;;8.93;6.55;;;14.10;99.90;;;;;;5072738;28;20064;-84
2022/08/10 01:44:38;;;;;;;8.68;6.63;;;14.10;99.90;;;;;;5072324;28;20533;-83
2022/08/10 01:50:03;;;;;;;7.85;7.05;;;14.10;99.90;;;;;;5054388;28;20477;-84
2022/08/10 01:52:30;;;;;;;6.40;5.80;;;14.10;99.90;;;;;;5072434;28;20068;-83
2022/08/10 01:54:57;;;;;;;8.10;6.70;;;14.10;99.90;;;;;;5054726;28;20099;-84
2022/08/10 01:57:26;;;;;;;6.80;5.90;;;14.10;99.90;;;;;;5072145;28;20064;-82
2022/08/10 01:59:55;;;;;;;8.75;7.72;;;14.10;99.90;;;;;;5054699;28;20475;-84
2022/08/10 02:02:21;;;;;;;8.75;7.20;;;14.10;99.90;;;;;;5054705;28;20147;-84
2022/08/10 02:04:51;;;;;;;6.13;5.18;;;14.20;99.90;;;;;;5054195;28;20045;-83
2022/08/10 02:07:22;;;;;;;8.30;7.10;;;14.10;99.90;;;;;;5054993;28;20092;-83
2022/08/10 02:09:52;;;;;;;11.75;7.05;;;14.10;99.90;;;;;;5072330;28;20075;-83
2022/08/10 02:12:23;;;;;;;7.65;6.57;;;14.10;99.90;;;;;;5054517;28;20056;-87
2022/08/10 02:14:54;;;;;;;8.48;7.60;;;14.10;99.90;;;;;;5072241;28;20101;-86
2022/08/10 02:17:24;;;;;;;10.70;7.03;;;14.10;99.90;;;;;;5071990;28;20088;-83
2022/08/10 02:19:52;;;;;;;10.48;8.23;;;14.10;99.90;;;;;;5055530;28;20067;-86
2022/08/10 02:22:20;;;;;;;8.30;7.50;;;14.10;99.90;;;;;;5076173;28;20052;-83
2022/08/10 02:24:47;;;;;;;9.32;7.85;;;14.10;99.90;;;;;;5076187;28;20048;-83
2022/08/10 02:27:14;;;;;;;8.63;7.32;;;14.00;99.90;;;;;;5040939;28;20143;-83
2022/08/10 02:29:42;;;;;;;7.80;7.00;;;14.00;99.90;;;;;;5074975;28;20454;-83
2022/08/10 02:32:08;;;;;;;10.07;7.97;;;14.00;99.90;;;;;;5076019;28;20113;-83
2022/08/10 02:34:38;;;;;;;9.88;8.05;;;14.00;99.90;;;;;;5075681;28;20052;-83
2022/08/10 02:37:04;;;;;;;9.32;8.27;;;14.00;99.90;;;;;;5075712;28;20053;-82
2022/08/10 02:39:31;;;;;;;9.38;7.57;;;13.90;99.90;;;;;;5075729;28;20404;-82
2022/08/10 02:42:07;;;;;;;8.70;6.95;;;13.90;99.90;;;;;;5075684;28;20048;-81
2022/08/10 02:44:58;;;;;;;7.85;7.03;;;13.90;99.90;;;;;;5075400;28;20052;-84
2022/08/10 02:47:39;;;;;;;10.88;7.97;;;13.90;99.90;;;;;;5058099;28;20103;-83
2022/08/10 02:50:26;;;;;;;13.90;9.02;;;13.90;99.90;;;;;;5057722;28;20508;-85
2022/08/10 02:53:03;;;;;;;10.15;8.45;;;13.90;99.90;;;;;;5075338;28;20079;-83
2022/08/10 02:55:38;;;;;;;10.32;8.50;;;13.80;99.90;;;;;;5057669;28;20053;-83
2022/08/10 02:58:12;;;;;;;11.95;8.73;;;13.80;99.90;;;;;;5075543;28;20048;-83
2022/08/10 03:00:43;;;;;;;10.25;8.88;;;13.80;99.90;;;;;;5075589;28;20450;-83
2022/08/10 03:03:19;;;;;;;7.97;6.53;;;13.80;99.90;;;;;;5075283;28;20048;-82
2022/08/10 03:05:48;;;;;;;14.02;9.50;;;13.80;99.90;;;;;;5075281;28;20079;-83
2022/08/10 03:08:20;;;;;;;14.32;10.65;;;13.80;99.90;;;;;;5057652;28;20106;-83
2022/08/10 03:10:48;;;;;;;12.52;9.38;;;13.80;99.90;;;;;;5075205;28;20127;-83
2022/08/10 03:13:15;;;;;;;10.65;7.68;;;13.60;99.90;;;;;;5075029;28;20512;-82
2022/08/10 03:15:43;;;;;;;12.45;9.85;;;13.70;99.90;;;;;;5057362;28;20060;-83
2022/08/10 03:18:10;;;;;;;11.93;10.05;;;13.70;99.90;;;;;;5056414;28;20188;-83
2022/08/10 03:20:39;;;;;;;12.45;10.40;;;13.70;99.90;;;;;;5090974;28;20062;-83
2022/08/10 03:23:11;;;;;;;14.00;10.48;;;13.70;99.90;;;;;;5074996;28;20056;-83
2022/08/10 03:25:37;;;;;;;15.13;9.35;;;13.70;99.90;;;;;;5056709;28;20049;-83
2022/08/10 03:28:04;;;;;;;16.92;10.48;;;13.70;99.90;;;;;;5074896;28;20432;-83
2022/08/10 03:30:30;;;;;;;10.43;9.32;;;13.80;99.90;;;;;;5074420;28;20060;-83
2022/08/10 03:32:57;;;;;;;15.45;11.57;;;13.80;99.90;;;;;;5056911;28;20056;-83
2022/08/10 03:35:24;;;;;;;16.27;11.18;;;13.70;99.90;;;;;;5074769;28;20052;-84
2022/08/10 03:37:50;;;;;;;15.15;9.90;;;13.70;99.90;;;;;;5057258;28;20064;-84
2022/08/10 03:40:15;;;;;;;11.63;8.75;;;13.70;99.90;;;;;;5057209;28;20428;-83
2022/08/10 03:42:45;;;;;;;13.15;9.50;;;13.80;99.90;;;;;;5074621;28;20056;-83
2022/08/10 03:45:12;;;;;;;13.00;10.27;;;13.80;99.90;;;;;;5074668;28;20049;-89
2022/08/10 03:47:40;;;;;;;16.48;10.70;;;13.70;99.90;;;;;;5074297;28;20059;-84
2022/08/10 03:50:08;;;;;;;16.35;11.38;;;13.70;99.90;;;;;;5056854;28;20109;-84
2022/08/10 03:52:34;;;;;;;16.75;10.43;;;13.70;99.90;;;;;;5074263;28;20576;-85
2022/08/10 03:55:00;;;;;;;13.52;9.75;;;13.60;99.90;;;;;;5074366;28;20409;-83
2022/08/10 03:57:28;;;;;;;12.95;10.05;;;13.60;99.90;;;;;;5073031;28;20055;-83
2022/08/10 03:59:55;;;;;;;15.40;10.75;;;13.60;99.90;;;;;;5074144;28;20528;-84
2022/08/10 04:02:21;;;;;;;11.43;9.15;;;13.60;99.90;;;;;;5056237;28;20469;-84
2022/08/10 04:04:46;;;;;;;15.20;10.43;;;13.60;99.90;;;;;;5056017;28;20080;-84
2022/08/10 04:07:12;;;;;;;13.60;10.05;;;13.70;99.90;;;;;;5055668;28;20091;-86
2022/08/10 04:09:38;;;;;;;13.90;8.52;;;13.60;99.90;;;;;;5074665;28;20056;-83
2022/08/10 04:12:04;;;;;;;16.92;11.25;;;13.60;99.90;;;;;;5056353;28;20056;-84
2022/08/10 04:14:30;;;;;;;16.27;11.50;;;13.60;99.90;;;;;;5056113;28;20052;-83
2022/08/10 04:16:56;;;;;;;15.95;10.43;;;13.70;99.90;;;;;;5073748;28;20056;-85
2022/08/10 04:19:22;;;;;;;13.52;10.30;;;13.60;99.90;;;;;;5074036;28;20060;-85
2022/08/10 04:22:05;;;;;;;14.27;11.32;;;13.60;99.90;;;;;;5056276;28;20056;-84
2022/08/10 04:24:35;;;;;;;13.82;10.48;;;13.60;99.90;;;;;;5056222;28;20071;-83
2022/08/10 04:27:01;;;;;;;14.15;11.02;;;13.60;99.90;;;;;;5072987;28;20082;-84
2022/08/10 04:29:28;;;;;;;15.98;11.98;;;13.60;99.90;;;;;;5072818;28;20064;-84
2022/08/10 04:31:53;;;;;;;19.20;12.00;;;13.60;99.90;;;;;;5057975;28;20501;-83
2022/08/10 04:34:20;;;;;;;19.40;12.52;;;13.60;99.90;;;;;;5072912;28;20044;-83
2022/08/10 04:36:48;;;;;;;14.38;11.52;;;13.60;99.90;;;;;;5060600;28;20056;-85
2022/08/10 04:39:14;;;;;;;17.55;12.65;;;13.60;99.90;;;;;;5072683;28;20132;-84
2022/08/10 04:41:40;;;;;;;17.13;11.88;;;13.60;99.90;;;;;;5072617;28;20126;-84
2022/08/10 04:44:06;;;;;;;19.35;11.57;;;13.70;99.90;;;;;;5055418;28;20056;-84
2022/08/10 04:46:32;;;;;;;16.58;11.30;;;13.60;99.90;;;;;;5073383;28;20055;-84
2022/08/10 04:48:58;;;;;;;14.57;10.75;;;13.70;99.90;;;;;;5055551;28;20136;-84
2022/08/10 04:51:24;;;;;;;14.60;10.50;;;13.60;99.90;;;;;;5072634;28;20127;-84
2022/08/10 04:53:51;;;;;;;18.38;11.90;;;13.70;99.90;;;;;;5072779;28;20508;-88
2022/08/10 04:56:16;;;;;;;15.98;10.93;;;13.70;99.90;;;;;;5072051;28;20059;-84
2022/08/10 04:58:42;;;;;;;16.90;11.50;;;13.70;99.90;;;;;;5071725;28;20052;-84
2022/08/10 05:01:08;;;;;;;16.90;11.95;;;13.60;99.90;;;;;;5071732;28;20072;-84
2022/08/10 05:03:34;;;;;;;9.75;7.05;;;13.80;99.90;;;;;;5072214;28;20398;-84
2022/08/10 05:05:59;;;;;;;18.05;12.13;;;13.80;99.90;;;;;;5073048;28;20056;-83
2022/08/10 05:08:25;;;;;;;13.52;9.43;;;13.90;99.90;;;;;;5072012;28;20044;-84
2022/08/10 05:10:51;;;;;;;15.13;11.65;;;13.90;99.90;;;;;;5073092;28;20056;-84
2022/08/10 05:13:17;;;;;;;15.52;10.95;;;14.00;99.90;;;;;;5073057;28;20048;-84
2022/08/10 05:15:44;;;;;;;14.13;10.15;;;14.00;99.90;;;;;;5072591;28;20052;-86
2022/08/10 05:18:10;;;;;;;16.05;11.57;;;14.10;99.90;;;;;;5071920;28;20125;-84
2022/08/10 05:20:36;;;;;;;10.57;9.13;;;14.20;99.90;;;;;;5072859;28;20056;-84
2022/08/10 05:23:02;;;;;;;14.52;9.63;;;14.20;99.90;;;;;;5071861;28;20466;-83
2022/08/10 05:25:28;;;;;;;16.80;10.85;;;14.30;99.90;;;;;;5072656;28;20122;-84
2022/08/10 05:27:54;;;;;;;14.38;10.27;;;14.40;99.90;;;;;;5072641;28;20490;-84
2022/08/10 05:30:21;;;;;;;16.77;11.45;;;14.50;99.90;;;;;;5072556;28;20405;-80
2022/08/10 05:32:47;;;;;;;17.48;11.70;;;14.60;99.90;;;;;;5072471;28;20048;-83
2022/08/10 05:35:13;;;;;;;14.10;10.63;;;14.70;99.90;;;;;;5072373;28;20144;-89
2022/08/10 05:37:40;;;;;;;10.98;9.10;;;14.70;99.90;;;;;;5072664;28;20056;-83
2022/08/10 05:40:06;;;;;;;15.32;11.13;;;14.80;99.90;;;;;;5071649;28;20056;-84
2022/08/10 05:42:32;;;;;;;13.25;9.50;;;14.80;99.90;;;;;;5071571;28;20057;-79
2022/08/10 05:44:58;;;;;;;24.33;10.52;;;14.90;99.90;;;;;;5072357;28;20113;-84
2022/08/10 05:47:25;;;;;;;13.15;10.55;;;15.00;99.90;;;;;;5071020;28;20048;-84
2022/08/10 05:49:54;;;;;;;13.57;9.95;;;15.10;99.90;;;;;;5072436;28;20053;-82
2022/08/10 05:52:20;;;;;;;12.98;9.07;;;15.20;99.90;;;;;;5072556;28;20063;-87
2022/08/10 05:54:47;;;;;;;13.40;10.43;;;15.30;99.90;;;;;;5072114;28;20044;-81
2022/08/10 05:57:15;;;;;;;12.57;9.43;;;15.30;99.90;;;;;;5084931;28;20140;-84
2022/08/10 05:59:48;;;;;;;14.13;9.55;;;15.40;99.90;;;;;;5092362;28;20751;-84
2022/08/10 06:02:25;;;;;;;12.73;10.98;;;15.40;99.90;;;;;;5057598;28;20412;-84
2022/08/10 06:04:54;;;;;;;14.57;10.02;;;15.60;99.90;;;;;;5074582;28;20145;-85
2022/08/10 06:07:20;;;;;;;14.45;9.75;;;15.60;99.90;;;;;;5092443;28;20056;-80
2022/08/10 06:09:48;;;;;;;11.10;9.18;;;15.70;99.90;;;;;;5073822;28;20059;-84
2022/08/10 06:12:14;;;;;;;12.15;9.52;;;15.70;99.90;;;;;;5092544;28;20062;-83
2022/08/10 06:15:01;;;;;;;11.98;8.05;;;15.90;99.90;;;;;;5092083;28;20044;-79
2022/08/10 06:17:29;;;;;;;15.05;8.77;;;15.90;99.90;;;;;;5074428;28;20063;-87
2022/08/10 06:19:56;;;;;;;12.55;9.75;;;16.00;99.90;;;;;;5074621;28;20062;-83
2022/08/10 06:22:23;;;;;;;12.10;8.73;;;16.20;99.90;;;;;;5092340;28;20062;-83
2022/08/10 06:24:49;;;;;;;12.05;9.90;;;16.40;99.90;;;;;;5074097;28;20408;-84
2022/08/10 06:27:15;;;;;;;11.95;9.40;;;16.40;99.90;;;;;;5092102;28;20059;-83
2022/08/10 06:29:44;;;;;;;11.48;8.27;;;16.60;99.90;;;;;;5057715;28;20052;-84
2022/08/10 06:32:11;;;;;;;17.42;8.93;;;16.60;99.90;;;;;;5092302;28;20091;-83
2022/08/10 06:34:48;;;;;;;11.52;8.77;;;16.70;99.90;;;;;;5091992;28;20336;-84
2022/08/10 06:37:16;;;;;;;11.63;7.63;;;16.80;99.90;;;;;;5073963;28;20519;-84
2022/08/10 06:39:43;;;;;;;12.15;6.45;;;16.90;99.90;;;;;;5092032;28;20065;-83
2022/08/10 06:42:15;;;;;;;8.45;7.10;;;17.00;99.90;;;;;;5091788;28;20055;-83
2022/08/10 06:44:57;;;;;;;11.80;8.40;;;17.10;99.90;;;;;;5092023;28;20579;-82
2022/08/10 06:47:52;;;;;;;6.93;5.72;;;17.20;99.90;;;;;;5091973;28;20503;-85
2022/08/10 06:50:29;;;;;;;10.02;6.75;;;17.30;99.90;;;;;;5008826;28;20058;-82
2022/08/10 06:52:57;;;;;;;8.90;6.50;;;17.40;99.90;;;;;;4975517;28;20551;-85
2022/08/10 06:55:25;;;;;;;9.98;6.03;;;17.60;99.90;;;;;;4993128;28;20269;-84
2022/08/10 06:57:52;;;;;;;11.32;6.70;;;17.60;99.90;;;;;;4993468;28;20065;-83
2022/08/10 07:00:18;;;;;;;10.73;6.60;;;17.80;99.90;;;;;;5009774;28;20065;-84
2022/08/10 07:02:53;;;;;;;13.63;6.20;;;17.80;99.90;;;;;;5009595;28;20057;-83
2022/08/10 07:05:22;;;;;;;12.57;5.88;;;18.00;99.90;;;;;;4993951;28;20058;-84
2022/08/10 07:07:51;;;;;;;8.07;5.95;;;18.20;99.90;;;;;;4997384;28;20058;-82
2022/08/10 07:10:19;;;;;;;8.27;5.28;;;18.20;99.90;;;;;;5013242;28;20054;-84
2022/08/10 07:12:47;;;;;;;6.80;4.97;;;18.30;99.90;;;;;;5013350;28;20050;-83
2022/08/10 07:15:16;;;;;;;7.05;5.75;;;18.50;99.90;;;;;;5012997;28;20053;-84
2022/08/10 07:17:42;;;;;;;7.78;4.43;;;18.70;99.90;;;;;;4996716;28;20136;-84
2022/08/10 07:20:12;;;;;;;7.32;4.55;;;18.80;99.90;;;;;;5012988;28;20411;-81
2022/08/10 07:22:39;;;;;;;7.63;4.90;;;18.80;99.90;;;;;;5013058;28;20470;-81
2022/08/10 07:25:07;;;;;;;10.57;4.50;;;18.90;99.90;;;;;;4996766;28;20054;-83
2022/08/10 07:27:34;;;;;;;7.05;3.85;;;19.00;99.90;;;;;;5029160;28;20529;-84
2022/08/10 07:30:00;;;;;;;8.35;4.95;;;19.10;99.90;;;;;;5076987;28;20052;-84
2022/08/10 07:32:27;;;;;;;6.53;3.97;;;19.30;99.90;;;;;;5094820;28;20059;-83
2022/08/10 07:34:54;;;;;;;8.23;4.05;;;19.50;99.90;;;;;;5076636;28;20044;-84
2022/08/10 07:37:22;;;;;;;11.35;3.80;;;19.60;99.90;;;;;;5094925;28;20059;-84
2022/08/10 07:39:51;;;;;;;7.53;4.22;;;19.70;99.90;;;;;;5093735;28;20078;-83
2022/08/10 07:42:20;;;;;;;7.90;3.75;;;19.80;99.90;;;;;;5094228;28;20122;-84
2022/08/10 07:44:47;;;;;;;8.88;3.33;;;19.90;99.90;;;;;;5075815;28;20091;-80
2022/08/10 07:47:18;;;;;;;12.70;3.90;;;20.10;99.90;;;;;;5075855;28;20071;-81
2022/08/10 07:49:48;;;;;;;7.18;3.20;;;20.30;99.90;;;;;;5075940;28;20086;-83
2022/08/10 07:52:13;;;;;;;5.50;2.85;;;20.50;99.90;;;;;;5075457;28;20060;-83
2022/08/10 07:54:46;;;;;;;11.43;3.38;;;20.70;99.90;;;;;;5093634;28;20044;-83
2022/08/10 07:57:18;;;;;;;8.25;3.65;;;21.40;99.90;;;;;;5092092;28;20095;-83
2022/08/10 07:59:47;;;;;;;5.88;3.22;;;22.20;99.90;;;;;;5093349;28;20561;-85
2022/08/10 08:02:22;;;;;;;7.78;2.90;;;22.50;99.90;;;;;;5093798;28;20101;-84
2022/08/10 08:04:49;;;;;;;5.43;2.80;;;22.70;99.90;;;;;;5075554;28;20048;-81
2022/08/10 08:07:16;;;;;;;8.15;3.60;;;23.20;99.90;;;;;;5093481;28;20451;-84
2022/08/10 08:09:42;;;;;;;5.45;3.30;;;23.70;99.90;;;;;;5093309;28;20044;-83
2022/08/10 08:12:11;;;;;;;6.32;3.17;;;24.10;99.90;;;;;;5047638;28;20071;-84
2022/08/10 08:14:38;;;;;;;8.80;3.28;;;24.60;99.90;;;;;;5055075;28;20045;-84
2022/08/10 08:17:07;;;;;;;7.00;2.80;;;25.10;99.90;;;;;;5037106;28;20052;-84
2022/08/10 08:19:33;;;;;;;6.75;2.85;;;25.90;99.90;;;;;;5072568;28;20061;-81
2022/08/10 08:22:00;;;;;;;7.28;3.55;;;26.50;99.70;;;;;;5072666;28;20056;-83
2022/08/10 08:24:27;;;;;;;7.43;3.22;;;26.90;96.80;;;;;;5055066;28;20114;-83
2022/08/10 08:26:55;;;;;;;6.28;2.70;;;27.30;94.30;;;;;;5072337;28;20068;-78
2022/08/10 08:29:22;;;;;;;6.45;2.95;;;27.60;92.30;;;;;;5072920;28;20059;-82
2022/08/10 08:31:49;;;;;;;4.32;2.50;;;27.80;84.50;;;;;;5039268;28;20060;-80
2022/08/10 08:34:16;;;;;;;4.13;2.63;;;28.00;79.10;;;;;;5073300;28;20059;-82
2022/08/10 08:36:43;;;;;;;5.13;2.38;;;28.30;77.80;;;;;;5038851;28;20056;-85
2022/08/10 08:39:11;;;;;;;7.13;2.50;;;28.60;75.90;;;;;;5073179;28;20118;-83
2022/08/10 08:42:02;;;;;;;4.43;2.97;;;28.90;72.30;;;;;;5054671;28;20485;-84
2022/08/10 08:44:46;;;;;;;5.43;2.40;;;29.20;75.50;;;;;;5073316;28;20053;-81
2022/08/10 08:47:31;;;;;;;5.32;2.50;;;29.60;65.40;;;;;;5072860;28;20060;-82
2022/08/10 08:50:38;;;;;;;3.83;2.45;;;29.80;65.00;;;;;;5072088;28;20383;-80
2022/08/10 08:53:16;;;;;;;4.43;2.50;;;30.20;65.90;;;;;;4994958;28;20085;-84
2022/08/10 08:56:20;;;;;;;6.82;2.60;;;30.60;64.00;;;;;;4995037;28;20061;-84
2022/08/10 08:58:51;;;;;;;4.25;2.20;;;31.00;61.70;;;;;;4978698;28;20523;-83
2022/08/10 09:01:22;;;;;;;4.63;2.35;;;31.40;59.40;;;;;;4994913;28;20049;-85
2022/08/10 09:04:00;;;;;;;4.03;2.40;;;31.60;58.30;;;;;;4977957;28;20061;-82
2022/08/10 09:07:02;;;;;;;10.70;2.13;;;32.10;59.00;;;;;;5010882;28;20057;-84
2022/08/10 09:09:56;;;;;;;4.30;1.85;;;32.50;59.30;;;;;;5010892;28;20504;-84
2022/08/10 09:12:36;;;;;;;6.28;2.03;;;33.10;55.90;;;;;;4901951;29;20198;-84
2022/08/10 09:15:05;;;;;;;;;;;33.80;55.70;;;;;;4918173;29;20410;-84
2022/08/10 09:17:46;;;;;;;9.30;1.95;;;34.50;56.00;;;;;;4901579;29;19923;-84
2022/08/10 09:20:34;;;;;;;4.25;1.52;;;34.80;52.70;;;;;;4917416;29;20074;-85
2022/08/10 09:23:38;;;;;;;3.03;1.33;;;34.90;53.60;;;;;;4917546;29;20517;-85
2022/08/10 09:26:17;;;;;;;6.88;1.75;;;35.00;51.40;;;;;;4901042;29;20056;-84
2022/08/10 09:28:46;;;;;;;9.23;1.52;;;35.10;49.80;;;;;;4934123;28;20074;-84
2022/08/10 09:31:14;;;;;;;7.68;1.15;;;35.30;49.30;;;;;;4974596;28;20063;-83
2022/08/10 09:34:18;;;;;;;5.40;1.70;;;35.60;48.30;;;;;;4974485;28;20459;-84
2022/08/10 09:37:13;;;;;;;4.07;1.20;;;35.70;48.90;;;;;;4879888;29;20530;-80
2022/08/10 09:39:53;;;;;;;6.78;1.30;;;36.10;48.30;;;;;;4879881;29;20060;-81
2022/08/10 09:42:39;;;;;;;9.23;1.50;;;36.20;47.00;;;;;;4879881;29;20135;-83
2022/08/10 09:45:18;;;;;;;3.63;1.30;;;36.30;46.80;;;;;;4894871;29;20124;-83
2022/08/10 09:48:16;;;;;;;6.03;1.20;;;36.60;45.70;;;;;;4900347;28;20056;-84
2022/08/10 09:51:01;;;;;;;5.07;1.20;;;36.80;45.30;;;;;;4969306;28;20366;-84
2022/08/10 09:53:53;;;;;;;3.45;1.13;;;37.00;45.00;;;;;;4971196;28;20062;-84
2022/08/10 09:56:40;;;;;;;2.30;0.90;;;37.20;44.80;;;;;;4971242;28;20062;-86
2022/08/10 09:59:26;;;;;;;6.80;1.55;;;37.30;44.80;;;;;;4955021;28;20580;-83
2022/08/10 10:02:19;;;;;;;2.03;0.82;;;37.60;43.10;;;;;;4971278;28;20046;-82
2022/08/10 10:05:03;;;;;;;3.38;1.00;;;37.80;42.10;;;;;;4971159;28;20109;-87
2022/08/10 10:07:29;;;;;;;4.32;1.02;;;37.70;41.40;;;;;;4971130;28;20459;-83
2022/08/10 10:10:18;;;;;;;2.08;1.00;;;37.70;41.30;;;;;;4954879;28;20059;-83
2022/08/10 10:13:17;;;;;;;2.17;1.05;;;37.70;41.90;;;;;;4988937;28;20054;-84
2022/08/10 10:15:55;;;;;;;3.00;1.03;;;37.80;42.40;;;;;;4993751;28;20169;-85
2022/08/10 10:18:41;;;;;;;5.10;0.90;;;38.00;41.20;;;;;;4993263;28;20058;-84
2022/08/10 10:21:34;;;;;;;2.10;1.00;;;38.30;40.60;;;;;;5026184;28;20090;-85
2022/08/10 10:24:03;;;;;;;2.83;1.27;;;38.80;40.00;;;;;;4993891;28;20483;-85
2022/08/10 10:26:59;;;;;;;4.25;1.10;;;38.90;40.40;;;;;;5010021;28;20072;-86
2022/08/10 10:30:08;;;;;;;9.23;1.30;;;38.90;40.40;;;;;;5009913;28;20054;-85
2022/08/10 10:33:01;;;;;;;5.43;1.17;;;38.80;39.40;;;;;;4993498;28;20061;-84
2022/08/10 10:35:32;;;;;;;4.35;1.30;;;38.70;40.40;;;;;;4993409;28;20053;-82
2022/08/10 10:38:00;;;;;;;3.17;1.00;;;38.80;39.60;;;;;;4993668;28;20046;-83
2022/08/10 10:40:32;;;;;;;4.32;1.00;;;39.00;38.40;;;;;;5010392;28;20057;-82
2022/08/10 10:43:34;;;;;;;3.75;0.90;;;39.00;38.60;;;;;;5013744;28;20050;-84
2022/08/10 10:46:35;;;;;;;4.97;0.90;;;39.10;38.10;;;;;;5013397;28;20062;-81
2022/08/10 10:49:18;;;;;;;2.97;0.90;;;39.10;38.00;;;;;;4997160;28;20057;-83
2022/08/10 10:52:01;;;;;;;4.95;0.93;;;39.30;37.50;;;;;;5019035;28;20056;-84
2022/08/10 10:54:38;;;;;;;2.63;0.90;;;39.50;37.80;;;;;;5057005;28;20468;-83
2022/08/10 10:57:18;;;;;;;3.22;0.82;;;39.70;37.00;;;;;;5057022;28;20189;-84
2022/08/10 11:00:01;;;;;;;;;;;39.70;38.60;;;;;;5058006;28;20059;-81
2022/08/10 11:02:31;;;;;;;3.78;0.90;;;40.00;36.40;;;;;;5075100;28;20395;-82
2022/08/10 11:05:08;;;;;;;1.98;1.00;;;39.90;37.30;;;;;;5057643;28;20106;-84
2022/08/10 11:07:40;;;;;;;1.92;0.73;;;40.00;37.00;;;;;;5057243;28;20074;-85
2022/08/10 11:10:24;;;;;;;3.60;0.70;;;40.00;36.40;;;;;;5075074;28;20455;-84
2022/08/10 11:13:17;;;;;;;1.85;0.90;;;40.00;36.60;;;;;;5074763;28;20412;-83
2022/08/10 11:16:09;;;;;;;2.97;1.00;;;40.00;35.10;;;;;;5075241;28;20059;-83
2022/08/10 11:19:22;;;;;;;6.10;1.00;;;39.90;35.20;;;;;;5074869;28;20052;-85
2022/08/10 11:22:06;;;;;;;1.60;0.80;;;39.80;36.30;;;;;;5012822;28;20053;-83
2022/08/10 11:24:49;;;;;;;1.75;0.80;;;39.90;36.30;;;;;;5012879;28;20495;-83
2022/08/10 11:27:43;;;;;;;2.08;0.90;;;40.00;36.70;;;;;;5029034;28;20472;-81
2022/08/10 11:30:14;;;;;;;1.77;0.80;;;40.10;35.40;;;;;;4996471;28;20049;-85
2022/08/10 11:32:58;;;;;;;1.75;1.00;;;40.10;35.40;;;;;;5012674;28;20049;-84
2022/08/10 11:35:37;;;;;;;2.63;1.17;;;40.20;35.80;;;;;;5012139;28;20064;-83
2022/08/10 11:38:20;;;;;;;1.42;0.80;;;40.20;35.20;;;;;;5029397;28;20364;-83
2022/08/10 11:41:20;;;;;;;1.60;1.00;;;40.20;35.50;;;;;;4996595;28;20057;-84
2022/08/10 11:43:55;;;;;;;2.63;1.00;;;40.40;35.40;;;;;;4996406;28;20498;-84
2022/08/10 11:46:28;;;;;;;2.40;0.90;;;40.50;35.90;;;;;;5012370;28;20054;-84
2022/08/10 11:49:10;;;;;;;2.42;1.00;;;40.30;35.40;;;;;;5012641;28;20058;-80
2022/08/10 11:51:52;;;;;;;2.10;0.93;;;40.20;34.50;;;;;;5012090;28;20498;-84
2022/08/10 11:54:48;;;;;;;2.30;0.88;;;40.00;34.90;;;;;;5012501;28;20487;-82
2022/08/10 11:57:15;;;;;;;3.83;0.90;;;40.10;35.90;;;;;;5055196;28;20057;-83
2022/08/10 11:59:55;;;;;;;1.50;0.90;;;40.00;34.90;;;;;;5056772;28;20049;-83
2022/08/10 12:02:38;;;;;;;0.95;0.70;;;39.80;34.80;;;;;;5049651;28;20084;-84
2022/08/10 12:05:27;;;;;;;3.58;1.00;;;39.70;36.00;;;;;;5062607;28;20052;-84
2022/08/10 12:07:55;;;;;;;2.45;1.05;;;39.80;36.20;;;;;;5063901;28;20553;-87
2022/08/10 12:10:22;;;;;;;2.40;0.80;;;39.80;35.40;;;;;;5062969;28;20048;-82
2022/08/10 12:13:02;;;;;;;1.08;0.77;;;39.70;35.40;;;;;;5063464;28;20132;-82
2022/08/10 12:16:01;;;;;;;2.70;0.98;;;39.20;35.50;;;;;;5052110;28;20155;-82
2022/08/10 12:18:37;;;;;;;2.35;0.80;;;38.50;36.20;;;;;;5047955;28;20040;-82
2022/08/10 12:21:10;;;;;;;3.45;1.00;;;37.90;36.50;;;;;;5061297;28;21025;-83
2022/08/10 12:23:47;;;;;;;2.08;0.75;;;37.50;37.60;;;;;;5063391;28;20052;-81
2022/08/10 12:26:19;;;;;;;2.17;0.90;;;37.10;37.30;;;;;;5063216;28;20595;-84
2022/08/10 12:29:00;;;;;;;2.85;0.95;;;36.80;37.80;;;;;;5063510;28;20123;-82
2022/08/10 12:31:33;;;;;;;2.63;0.95;;;36.60;37.40;;;;;;5063177;28;20051;-83
2022/08/10 12:34:17;;;;;;;3.50;1.10;;;36.40;38.90;;;;;;5062559;28;20051;-84
2022/08/10 12:37:10;;;;;;;1.13;0.90;;;36.00;40.80;;;;;;5062818;28;20064;-85
2022/08/10 12:39:52;;;;;;;2.55;0.90;;;35.50;40.70;;;;;;5045529;28;20405;-83
2022/08/10 12:42:34;;;;;;;2.97;0.82;;;34.70;40.60;;;;;;5054126;28;20405;-82
2022/08/10 12:45:14;;;;;;;2.20;0.93;;;34.10;41.80;;;;;;5073351;28;20409;-80
2022/08/10 12:48:18;;;;;;;2.53;1.10;;;33.50;40.90;;;;;;5073615;28;20102;-84
2022/08/10 12:50:58;;;;;;;2.15;0.82;;;33.30;41.90;;;;;;4995184;28;20217;-84
2022/08/10 12:53:29;;;;;;;2.35;1.00;;;33.00;42.50;;;;;;4995003;28;20454;-82
2022/08/10 12:55:55;;;;;;;4.47;1.00;;;32.80;42.60;;;;;;5011141;28;20150;-84
2022/08/10 12:58:24;;;;;;;1.95;1.00;;;32.50;44.10;;;;;;5011361;28;20515;-84
2022/08/10 13:00:52;;;;;;;1.67;0.93;;;32.20;45.20;;;;;;5011102;28;20568;-82
2022/08/10 13:03:22;;;;;;;2.42;1.00;;;32.10;44.80;;;;;;4994515;28;20064;-81
2022/08/10 13:05:52;;;;;;;2.88;0.90;;;31.90;43.30;;;;;;5011133;28;20058;-84
2022/08/10 13:11:06;;;;;;;3.85;1.00;;;31.40;45.00;;;;;;4994744;28;20156;-81
2022/08/10 13:13:36;;;;;;;3.63;0.90;;;31.10;45.70;;;;;;4994225;28;20054;-82
2022/08/10 13:16:03;;;;;;;4.20;1.10;;;30.90;46.20;;;;;;5010777;28;20559;-82
2022/08/10 13:18:39;;;;;;;5.88;1.08;;;30.80;46.00;;;;;;4994675;28;20061;-83
2022/08/10 13:21:10;;;;;;;1.50;0.80;;;30.70;46.60;;;;;;4994256;28;20148;-82